sensor_id;sensor_type;location;lat;lon;timestamp;P1;durP1;ratioP1;P2;durP2;ratioP2
56401;SDS011;42299;35.160;26.100;2023-06-14T00:05:21;9.90;;;7.68;;
56401;SDS011;42299;35.160;26.100;2023-06-14T00:15:44;14.25;;;6.97;;
56401;SDS011;42299;35.160;26.100;2023-06-14T00:26:08;12.07;;;7.45;;
56401;SDS011;42299;35.160;26.100;2023-06-14T00:36:32;10.90;;;6.30;;
56401;SDS011;42299;35.160;26.100;2023-06-14T00:46:57;13.07;;;7.80;;
56401;SDS011;42299;35.160;26.100;2023-06-14T00:57:19;13.82;;;7.40;;
56401;SDS011;42299;35.160;26.100;2023-06-14T01:07:29;11.45;;;7.25;;
56401;SDS011;42299;35.160;26.100;2023-06-14T01:18:00;12.48;;;7.88;;
56401;SDS011;42299;35.160;26.100;2023-06-14T01:28:26;12.23;;;7.97;;
56401;SDS011;42299;35.160;26.100;2023-06-14T01:38:52;10.47;;;7.53;;
56401;SDS011;42299;35.160;26.100;2023-06-14T01:49:18;11.07;;;7.70;;
56401;SDS011;42299;35.160;26.100;2023-06-14T01:59:42;9.35;;;7.47;;
56401;SDS011;42299;35.160;26.100;2023-06-14T02:10:10;13.55;;;7.60;;
56401;SDS011;42299;35.160;26.100;2023-06-14T02:20:32;13.02;;;7.75;;
56401;SDS011;42299;35.160;26.100;2023-06-14T02:30:57;11.55;;;8.00;;
56401;SDS011;42299;35.160;26.100;2023-06-14T02:41:21;14.00;;;8.48;;
56401;SDS011;42299;35.160;26.100;2023-06-14T02:51:45;11.88;;;9.00;;
56401;SDS011;42299;35.160;26.100;2023-06-14T03:02:07;14.38;;;8.57;;
56401;SDS011;42299;35.160;26.100;2023-06-14T03:12:32;13.35;;;8.68;;
56401;SDS011;42299;35.160;26.100;2023-06-14T03:22:56;11.27;;;7.60;;
56401;SDS011;42299;35.160;26.100;2023-06-14T03:33:21;13.18;;;6.95;;
56401;SDS011;42299;35.160;26.100;2023-06-14T03:43:46;11.52;;;6.38;;
56401;SDS011;42299;35.160;26.100;2023-06-14T03:54:11;8.75;;;4.70;;
56401;SDS011;42299;35.160;26.100;2023-06-14T04:04:34;9.48;;;4.97;;
56401;SDS011;42299;35.160;26.100;2023-06-14T04:15:00;7.50;;;4.03;;
56401;SDS011;42299;35.160;26.100;2023-06-14T04:25:24;7.45;;;3.97;;
56401;SDS011;42299;35.160;26.100;2023-06-14T04:35:52;9.55;;;3.33;;
56401;SDS011;42299;35.160;26.100;2023-06-14T04:45:57;8.10;;;3.13;;
56401;SDS011;42299;35.160;26.100;2023-06-14T04:56:24;7.03;;;2.60;;
56401;SDS011;42299;35.160;26.100;2023-06-14T05:06:47;8.32;;;2.60;;
56401;SDS011;42299;35.160;26.100;2023-06-14T05:17:12;3.92;;;2.10;;
56401;SDS011;42299;35.160;26.100;2023-06-14T05:27:35;5.40;;;2.42;;
56401;SDS011;42299;35.160;26.100;2023-06-14T05:37:59;6.50;;;1.98;;
56401;SDS011;42299;35.160;26.100;2023-06-14T05:48:21;5.78;;;1.90;;
56401;SDS011;42299;35.160;26.100;2023-06-14T05:58:45;3.45;;;1.73;;
56401;SDS011;42299;35.160;26.100;2023-06-14T06:09:08;6.80;;;2.33;;
56401;SDS011;42299;35.160;26.100;2023-06-14T06:19:31;4.28;;;2.00;;
56401;SDS011;42299;35.160;26.100;2023-06-14T06:29:54;8.80;;;2.05;;
56401;SDS011;42299;35.160;26.100;2023-06-14T06:40:18;5.57;;;1.98;;
56401;SDS011;42299;35.160;26.100;2023-06-14T06:50:41;7.90;;;2.33;;
56401;SDS011;42299;35.160;26.100;2023-06-14T07:01:05;5.35;;;2.10;;
56401;SDS011;42299;35.160;26.100;2023-06-14T07:11:29;7.05;;;2.45;;
56401;SDS011;42299;35.160;26.100;2023-06-14T07:21:53;6.78;;;2.30;;
56401;SDS011;42299;35.160;26.100;2023-06-14T07:32:17;5.95;;;2.47;;
56401;SDS011;42299;35.160;26.100;2023-06-14T07:42:42;7.07;;;2.78;;
56401;SDS011;42299;35.160;26.100;2023-06-14T07:53:05;7.20;;;2.22;;
56401;SDS011;42299;35.160;26.100;2023-06-14T08:03:29;6.43;;;1.95;;
56401;SDS011;42299;35.160;26.100;2023-06-14T08:13:52;7.00;;;1.70;;
56401;SDS011;42299;35.160;26.100;2023-06-14T08:24:16;6.28;;;2.13;;
56401;SDS011;42299;35.160;26.100;2023-06-14T08:34:39;5.05;;;1.88;;
56401;SDS011;42299;35.160;26.100;2023-06-14T08:44:43;6.63;;;2.35;;
56401;SDS011;42299;35.160;26.100;2023-06-14T08:55:06;7.97;;;2.40;;
56401;SDS011;42299;35.160;26.100;2023-06-14T09:05:32;6.72;;;2.20;;
56401;SDS011;42299;35.160;26.100;2023-06-14T09:15:55;5.55;;;2.00;;
56401;SDS011;42299;35.160;26.100;2023-06-14T09:26:19;8.20;;;2.20;;
56401;SDS011;42299;35.160;26.100;2023-06-14T09:36:43;7.93;;;2.00;;
56401;SDS011;42299;35.160;26.100;2023-06-14T09:47:07;4.53;;;1.80;;
56401;SDS011;42299;35.160;26.100;2023-06-14T09:57:30;5.13;;;1.90;;
56401;SDS011;42299;35.160;26.100;2023-06-14T10:07:58;3.93;;;1.40;;
56401;SDS011;42299;35.160;26.100;2023-06-14T10:18:28;7.45;;;1.98;;
56401;SDS011;42299;35.160;26.100;2023-06-14T10:28:58;4.63;;;1.70;;
56401;SDS011;42299;35.160;26.100;2023-06-14T10:39:21;5.13;;;2.28;;
56401;SDS011;42299;35.160;26.100;2023-06-14T10:49:45;5.90;;;1.85;;
56401;SDS011;42299;35.160;26.100;2023-06-14T11:00:12;4.13;;;1.50;;
56401;SDS011;42299;35.160;26.100;2023-06-14T11:10:38;5.22;;;1.63;;
56401;SDS011;42299;35.160;26.100;2023-06-14T11:31:25;5.85;;;1.80;;
56401;SDS011;42299;35.160;26.100;2023-06-14T11:41:48;7.30;;;1.95;;
56401;SDS011;42299;35.160;26.100;2023-06-14T11:52:13;3.78;;;1.70;;
56401;SDS011;42299;35.160;26.100;2023-06-14T12:02:36;5.83;;;1.73;;
56401;SDS011;42299;35.160;26.100;2023-06-14T12:13:00;3.75;;;1.98;;
56401;SDS011;42299;35.160;26.100;2023-06-14T12:23:23;6.63;;;2.20;;
56401;SDS011;42299;35.160;26.100;2023-06-14T12:33:47;5.78;;;1.80;;
56401;SDS011;42299;35.160;26.100;2023-06-14T12:44:10;4.97;;;1.63;;
56401;SDS011;42299;35.160;26.100;2023-06-14T12:54:34;2.90;;;1.40;;
56401;SDS011;42299;35.160;26.100;2023-06-14T13:04:57;7.03;;;1.80;;
56401;SDS011;42299;35.160;26.100;2023-06-14T13:15:22;4.97;;;1.80;;
56401;SDS011;42299;35.160;26.100;2023-06-14T13:25:45;4.33;;;1.77;;
56401;SDS011;42299;35.160;26.100;2023-06-14T13:36:11;4.40;;;1.70;;
56401;SDS011;42299;35.160;26.100;2023-06-14T13:46:34;3.83;;;2.00;;
56401;SDS011;42299;35.160;26.100;2023-06-14T13:56:59;4.50;;;2.00;;
56401;SDS011;42299;35.160;26.100;2023-06-14T14:07:21;5.25;;;1.83;;
56401;SDS011;42299;35.160;26.100;2023-06-14T14:17:45;7.57;;;2.00;;
56401;SDS011;42299;35.160;26.100;2023-06-14T14:28:09;5.70;;;1.90;;
56401;SDS011;42299;35.160;26.100;2023-06-14T14:38:33;3.97;;;1.95;;
56401;SDS011;42299;35.160;26.100;2023-06-14T14:48:56;6.60;;;2.10;;
56401;SDS011;42299;35.160;26.100;2023-06-14T14:59:14;5.07;;;1.90;;
56401;SDS011;42299;35.160;26.100;2023-06-14T15:09:39;5.47;;;2.20;;
56401;SDS011;42299;35.160;26.100;2023-06-14T15:20:07;5.88;;;2.40;;
56401;SDS011;42299;35.160;26.100;2023-06-14T15:30:31;6.72;;;2.10;;
56401;SDS011;42299;35.160;26.100;2023-06-14T15:40:55;4.55;;;2.15;;
56401;SDS011;42299;35.160;26.100;2023-06-14T15:51:17;4.65;;;2.35;;
56401;SDS011;42299;35.160;26.100;2023-06-14T16:01:41;11.07;;;3.78;;
56401;SDS011;42299;35.160;26.100;2023-06-14T16:12:05;6.78;;;3.28;;
56401;SDS011;42299;35.160;26.100;2023-06-14T16:22:30;9.88;;;3.00;;
56401;SDS011;42299;35.160;26.100;2023-06-14T16:32:53;8.23;;;3.25;;
56401;SDS011;42299;35.160;26.100;2023-06-14T16:43:17;6.75;;;3.05;;
56401;SDS011;42299;35.160;26.100;2023-06-14T16:53:40;9.65;;;3.10;;
56401;SDS011;42299;35.160;26.100;2023-06-14T17:04:04;8.30;;;3.10;;
56401;SDS011;42299;35.160;26.100;2023-06-14T17:14:27;8.60;;;3.63;;
56401;SDS011;42299;35.160;26.100;2023-06-14T17:24:51;9.93;;;3.72;;
56401;SDS011;42299;35.160;26.100;2023-06-14T17:35:15;7.38;;;3.78;;
56401;SDS011;42299;35.160;26.100;2023-06-14T17:45:39;7.50;;;3.97;;
56401;SDS011;42299;35.160;26.100;2023-06-14T17:56:01;10.23;;;4.85;;
56401;SDS011;42299;35.160;26.100;2023-06-14T18:06:13;9.60;;;4.07;;
56401;SDS011;42299;35.160;26.100;2023-06-14T18:16:36;10.48;;;3.97;;
56401;SDS011;42299;35.160;26.100;2023-06-14T18:27:02;19.55;;;12.82;;
56401;SDS011;42299;35.160;26.100;2023-06-14T18:37:27;8.57;;;4.30;;
56401;SDS011;42299;35.160;26.100;2023-06-14T18:47:51;15.23;;;4.95;;
56401;SDS011;42299;35.160;26.100;2023-06-14T18:58:14;21.70;;;13.57;;
56401;SDS011;42299;35.160;26.100;2023-06-14T19:08:39;8.75;;;4.70;;
56401;SDS011;42299;35.160;26.100;2023-06-14T19:19:02;7.80;;;4.55;;
56401;SDS011;42299;35.160;26.100;2023-06-14T19:29:26;9.55;;;4.57;;
56401;SDS011;42299;35.160;26.100;2023-06-14T19:39:50;7.72;;;4.30;;
56401;SDS011;42299;35.160;26.100;2023-06-14T19:50:14;6.32;;;3.80;;
56401;SDS011;42299;35.160;26.100;2023-06-14T20:00:37;6.80;;;4.10;;
56401;SDS011;42299;35.160;26.100;2023-06-14T20:10:42;8.73;;;4.40;;
56401;SDS011;42299;35.160;26.100;2023-06-14T20:21:04;9.15;;;4.72;;
56401;SDS011;42299;35.160;26.100;2023-06-14T20:31:28;8.30;;;4.68;;
56401;SDS011;42299;35.160;26.100;2023-06-14T20:41:51;7.40;;;4.00;;
56401;SDS011;42299;35.160;26.100;2023-06-14T20:52:19;9.02;;;5.30;;
56401;SDS011;42299;35.160;26.100;2023-06-14T21:02:35;7.30;;;4.70;;
56401;SDS011;42299;35.160;26.100;2023-06-14T21:12:59;9.35;;;4.55;;
56401;SDS011;42299;35.160;26.100;2023-06-14T21:23:22;6.95;;;4.40;;
56401;SDS011;42299;35.160;26.100;2023-06-14T21:33:46;8.02;;;4.63;;
56401;SDS011;42299;35.160;26.100;2023-06-14T21:44:08;8.75;;;4.93;;
56401;SDS011;42299;35.160;26.100;2023-06-14T21:54:32;9.82;;;5.10;;
56401;SDS011;42299;35.160;26.100;2023-06-14T22:04:55;9.40;;;5.30;;
56401;SDS011;42299;35.160;26.100;2023-06-14T22:15:06;8.32;;;5.22;;
56401;SDS011;42299;35.160;26.100;2023-06-14T22:25:29;8.35;;;4.82;;
56401;SDS011;42299;35.160;26.100;2023-06-14T22:35:53;8.60;;;4.45;;
56401;SDS011;42299;35.160;26.100;2023-06-14T22:46:17;7.65;;;4.90;;
56401;SDS011;42299;35.160;26.100;2023-06-14T22:56:45;8.77;;;4.35;;
56401;SDS011;42299;35.160;26.100;2023-06-14T23:07:08;6.97;;;4.88;;
56401;SDS011;42299;35.160;26.100;2023-06-14T23:17:34;7.35;;;4.80;;
56401;SDS011;42299;35.160;26.100;2023-06-14T23:28:00;7.03;;;4.47;;
56401;SDS011;42299;35.160;26.100;2023-06-14T23:38:29;6.40;;;4.38;;
56401;SDS011;42299;35.160;26.100;2023-06-14T23:48:52;7.10;;;4.25;;
56401;SDS011;42299;35.160;26.100;2023-06-14T23:59:16;7.00;;;4.25;;
